Nearby METAR Reports

 

YSRI - Richmond (aus-Af, Australia
Distance from station: WSW 35km
Updated: 21/09/2017 04:00
Clear
Clear
 Wind from calm
Wind: Calm
Temperature: 7°C
Dew Point: 6°C
Humidity: 93%
Barometer: 1017 hPa
Clouds: Clear
Visibility: 10 km
2017/09/20 18:00 YSRI 201800Z AUTO 00000KT 9999 // NCD 07/06 Q1017
YSSY - Sydney Intl Airp, Australia
Distance from station: S 47km
Updated: 21/09/2017 03:30
Clear
Clear
 Wind from NW
Wind: NW 11 km/h
Temperature: 12°C
Dew Point: 9°C
Humidity: 82%
Barometer: 1016 hPa
Summary: Clear
Visibility: greater than 10 km
2017/09/20 17:30 YSSY 201730Z 31006KT CAVOK 12/09 Q1016 NOSIG
YWLM - Williamtown Arp, Australia
Distance from station: NE 104km
Updated: 21/09/2017 04:00
Clear
Clear
 Wind from NW
Wind: NW 9 km/h
Temperature: 7°C
Wind Chill: 6°C
Dew Point: 7°C
Humidity: 100%
Barometer: 1016 hPa
Clouds: Clear
Visibility: 10 km
2017/09/20 18:00 YWLM 201800Z AUTO 32005KT 9999 // NCD 07/07 Q1016
 
YSNW - Nowra (aus-Navy), Australia
Distance from station: SSW 168km
Updated: 21/09/2017 03:00
Clear
Clear
 Wind from WNW
Wind: WNW 13 km/h
Temperature: 8°C
Wind Chill: 6°C
Dew Point: 6°C
Humidity: 87%
Barometer: 1015 hPa
Clouds: Clear
Visibility: 10 km
2017/09/20 17:00 YSNW 201700Z AUTO 30007KT 9999 // NCD 08/06 Q1015
YMDG - Mudgee Arpt, Australia
Distance from station: NW 177km
Updated: 21/09/2017 04:00
Clear
Clear
 Wind from NNE
Wind: NNE 7 km/h
Temperature: 2°C
Wind Chill: 0°C
Dew Point: -2°C
Humidity: 75%
Barometer: 1017 hPa
Clouds: Clear
Visibility: 10 km
2017/09/20 18:00 YMDG 201800Z AUTO 02004KT 9999 // NCD 02/M02 Q1017
YTRE - Taree Airport, Australia
Distance from station: NE 224km
Updated: 21/09/2017 04:00
Clear
Clear
 Wind from W
Wind: W 4 km/h
Temperature: 7°C
Dew Point: 7°C
Humidity: 100%
Barometer: 1017 hPa
Clouds: Clear
Visibility: 10 km
2017/09/20 18:00 YTRE 201800Z AUTO 26002KT 9999 // NCD 07/07 Q1017
 
YSCB - Canberra (civ/Mi, Australia
Distance from station: SW 265km
Updated: 21/09/2017 04:00
Clear
Clear
 Wind from calm
Wind: Calm
Temperature: 1°C
Dew Point: 0°C
Humidity: 93%
Barometer: 1017 hPa
Clouds: Clear
Visibility: 10 km
2017/09/20 18:00 YSCB 201800Z AUTO 00000KT 9999 // NCD 01/00 Q1017
YSTW - Tamworth Airport, Australia
Distance from station: N 275km
Updated: 21/09/2017 04:00
Clear
Clear
 Wind from S
Wind: S 7 km/h
Temperature: 4°C
Wind Chill: 2°C
Dew Point: -1°C
Humidity: 70%
Barometer: 1017 hPa
Clouds: Clear
Visibility: 10 km
2017/09/20 18:00 YSTW 201800Z AUTO 18004KT 9999 // NCD 04/M01 Q1017
YSDU - Dubbo, Australia
Distance from station: WNW 280km
Updated: 21/09/2017 04:00
Clear
Clear
 Wind from ESE
Wind: ESE 11 km/h
Temperature: 2°C
Wind Chill: -1°C
Dew Point: 0°C
Humidity: 87%
Barometer: 1017 hPa
Clouds: Clear
Visibility: 10 km
2017/09/20 18:00 YSDU 201800Z AUTO 11006KT 9999 // NCD 02/M00 Q1017
 
YPMQ - Port Macquarie, Australia
Distance from station: NE 284km
Updated: 21/09/2017 04:00
Clear
Clear
 Wind from calm
Wind: Calm
Temperature: 6°C
Dew Point: 5°C
Humidity: 93%
Barometer: 1017 hPa
Clouds: Clear
Visibility: 2 km
2017/09/20 18:00 YPMQ 201800Z AUTO 00000KT 1600 // NCD 06/05 Q1017
YCBB - Coonabarabran, Australia
Distance from station: NW 300km
Updated: 21/09/2017 04:00

 Wind from SW
Wind: SW 9 km/h
Temperature: 12°C
Dew Point: -2°C
Humidity: 38%
Barometer: 1017 hPa
2017/09/20 18:00 YCBB 201800Z AUTO 22005KT //// // ////// 12/M02 Q1017